Juanita, North Dakota
Current Conditions -  °F | °C
As of 8:35 AM on Saturday 25 Oct 2014 (Local Time) from K46D Reporting Station
Clear Clear  
Wind Chill: 26°   Ceiling: Unl
Heat Index: 34°   Visibility: 10mi
Dew Point: 32°   Wind: 10mph
Humidity: 93%   Direction: 270°W
Pressure: 30.11"   Gusts: NA
Location:  47.4321°N, 98.6914°W
Report Text: K46D 251335Z AUTO 27009KT 10SM CLR 01/00 A3011 RMK AO2
Loading
Personal Weather Stations






























Interactive Weather Map
Tropical Storm Tracking
New forecast layout! Learn more

10-Day Weather Forecast

Advertisements
Track Severe Weather on mobile